Latest Weather Observations for PORTABLE QFRJ (North Tamborine)

IDQ60801

Issued at 7:02 am EST Saturday 18 November 2017 (issued every 30 minutes, with the page automatically refreshed every 10 minutes)

About weather observations | Map of weather stations | Latest weather observations for QLD | Other Formats
Station Details ID: 250074 Name: PORTABLE QFRJ (NORTH TAMBORINE) Lat: -27.94 Lon: 153.19 Height: 527.0 m
Data from the previous 72 hours. | See also: Recent months for locations in Queensland
Date/Time
EST
Temp
°C
App
Temp
°C
Dew
Point
°C
Rel
Hum
%
Delta-T
°C
Wind Press
QNH
hPa
Press
MSL
hPa
Rain since
9am
mm
Dir  Spd
km/h
Gust
km/h
Spd
kts
Gust
kts
18/06:40am 15.0 15.2 14.7 98 0.2 ESE 7 11 4 6 - - 5.6
18/06:30am 15.1 15.5 14.8 98 0.2 ESE 6 7 3 4 - - 3.4
18/06:20am 15.4 15.9 15.1 98 0.2 E 6 7 3 4 - - 1.4
18/06:10am 15.3 15.6 15.0 98 0.2 E 7 9 4 5 - - 1.4
18/06:00am 15.2 15.5 14.9 98 0.2 E 7 9 4 5 - - 1.4
18/05:50am 15.1 15.5 14.7 97 0.2 E 6 7 3 4 - - 1.4
18/05:40am 15.2 15.4 14.7 97 0.3 E 7 9 4 5 - - 1.4
18/05:30am 15.5 15.4 14.9 96 0.4 ENE 9 11 5 6 - - 1.4
18/05:20am 15.3 15.5 14.8 97 0.3 ENE 7 11 4 6 - - 1.4
18/05:10am 15.0 14.7 14.5 97 0.3 ENE 9 13 5 7 - - 1.4
18/05:00am 15.0 14.4 14.5 97 0.3 ENE 11 11 6 6 - - 1.4
18/04:50am 14.6 14.3 14.3 98 0.2 ENE 9 11 5 6 - - 1.4
18/04:40am 14.5 13.8 14.3 99 0.1 ENE 11 11 6 6 - - 1.4
18/04:30am 14.6 13.9 14.3 98 0.2 ENE 11 15 6 8 - - 1.4
18/04:20am 14.7 13.3 14.4 98 0.2 ENE 15 19 8 10 - - 1.4
18/04:10am 14.8 13.1 14.6 99 0.1 E 17 19 9 10 - - 1.4
18/04:00am 15.2 15.1 14.9 98 0.2 ENE 9 11 5 6 - - 1.2
18/03:50am 15.3 15.2 15.0 98 0.2 ENE 9 11 5 6 - - 1.2
18/03:40am 15.3 15.8 15.0 98 0.2 ENE 6 7 3 4 - - 1.2
18/03:30am 15.3 15.8 15.0 98 0.2 ENE 6 7 3 4 - - 1.2
18/03:20am 15.2 15.5 14.9 98 0.2 E 7 9 4 5 - - 1.2
18/03:10am 15.2 15.7 14.9 98 0.2 ENE 6 9 3 5 - - 1.2
18/03:00am 15.2 15.1 14.9 98 0.2 E 9 13 5 7 - - 1.2
18/02:50am 15.3 15.8 15.0 98 0.2 ENE 6 11 3 6 - - 0.4
18/02:40am 15.3 15.8 15.0 98 0.2 ENE 6 6 3 3 - - 0.2
18/02:30am 15.4 16.3 15.1 98 0.2 ENE 4 6 2 3 - - 0.2
18/02:20am 15.5 16.4 15.2 98 0.2 ENE 4 6 2 3 - - 0.2
18/02:10am 15.5 16.1 15.2 98 0.2 E 6 7 3 4 - - 0.2
18/02:00am 15.4 15.7 15.1 98 0.2 ENE 7 9 4 5 - - 0.2
18/01:50am 15.4 15.7 15.1 98 0.2 ENE 7 9 4 5 - - 0.2
18/01:40am 15.3 15.6 14.9 97 0.2 ENE 7 11 4 6 - - 0.2
18/01:30am 15.2 15.3 14.5 96 0.4 ENE 7 9 4 5 - - 0.2
18/01:20am 15.3 15.4 14.5 95 0.5 E 7 11 4 6 - - 0.2
18/01:10am 15.5 15.2 14.3 92 0.7 E 9 13 5 7 - - 0.0
18/01:00am 15.5 15.7 14.2 92 0.8 ENE 6 9 3 5 - - 0.0
18/12:50am 15.5 15.7 14.2 92 0.8 ENE 6 9 3 5 - - 0.0
18/12:40am 15.6 15.2 14.1 91 0.9 E 9 13 5 7 - - 0.0
18/12:30am 15.8 15.9 14.0 89 1.0 E 6 9 3 5 - - 0.0
18/12:20am 15.8 15.9 13.9 88 1.1 ENE 6 7 3 4 - - 0.0
18/12:10am 15.7 15.8 13.9 89 1.0 ENE 6 9 3 5 - - 0.0
18/12:00am 15.7 15.2 13.9 89 1.0 ENE 9 11 5 6 - - 0.0
 
Date/Time
EST
Temp
°C
App
Temp
°C
Dew
Point
°C
Rel
Hum
%
Delta-T
°C
Wind Press
QNH
hPa
Press
MSL
hPa
Rain since
9am
mm
Dir  Spd
km/h
Gust
km/h
Spd
kts
Gust
kts
17/11:50pm 15.9 15.8 13.9 88 1.2 E 7 11 4 6 - - 0.0
17/11:40pm 16.1 16.2 13.9 87 1.3 ENE 6 7 3 4 - - 0.0
17/11:30pm 16.1 16.2 13.8 86 1.3 ENE 6 6 3 3 - - 0.0
17/11:20pm 16.1 15.9 13.7 86 1.4 ENE 7 9 4 5 - - 0.0
17/11:10pm 16.1 16.1 13.7 86 1.4 ENE 6 9 3 5 - - 0.0
17/11:00pm 16.2 16.2 13.7 85 1.4 ENE 6 7 3 4 - - 0.0
17/10:50pm 16.3 16.1 13.7 84 1.5 E 7 9 4 5 - - 0.0
17/10:40pm 16.4 16.2 13.7 84 1.6 ENE 7 9 4 5 - - 0.0
17/10:30pm 16.4 16.4 13.7 84 1.6 ENE 6 9 3 5 - - 0.0
17/10:20pm 16.4 16.2 13.7 84 1.6 ENE 7 9 4 5 - - 0.0
17/10:10pm 16.4 16.5 13.8 84 1.5 ENE 6 7 3 4 - - 0.0
17/10:00pm 16.5 16.9 13.7 83 1.6 ENE 4 7 2 4 - - 0.0
17/09:50pm 16.4 16.8 13.7 84 1.6 ENE 4 7 2 4 - - 0.0
17/09:40pm 16.4 16.8 13.6 83 1.6 E 4 7 2 4 - - 0.0
17/09:30pm 16.4 16.2 13.6 83 1.6 ENE 7 11 4 6 - - 0.0
17/09:20pm 16.4 16.4 13.6 83 1.6 ENE 6 7 3 4 - - 0.0
17/09:10pm 16.4 16.2 13.6 83 1.6 ENE 7 11 4 6 - - 0.0
17/09:00pm 16.4 15.8 13.6 83 1.6 ENE 9 11 5 6 - - 0.0
17/08:50pm 16.4 16.2 13.7 84 1.6 ENE 7 9 4 5 - - 0.0
17/08:40pm 16.4 16.2 13.6 83 1.6 ENE 7 11 4 6 - - 0.0
17/08:30pm 16.4 15.9 13.7 84 1.6 ENE 9 13 5 7 - - 0.0
17/08:20pm 16.5 15.6 13.6 83 1.7 E 11 13 6 7 - - 0.0
17/08:10pm 16.5 16.0 13.7 83 1.6 ENE 9 13 5 7 - - 0.0
17/08:00pm 16.6 16.5 13.8 83 1.6 E 7 11 4 6 - - 0.0
17/07:50pm 16.7 16.6 13.8 83 1.7 E 7 9 4 5 - - 0.0
17/07:40pm 16.7 16.2 13.9 83 1.6 E 9 11 5 6 - - 0.0
17/07:30pm 16.8 16.9 13.9 83 1.7 E 6 7 3 4 - - 0.0
17/07:20pm 16.8 16.7 13.9 83 1.7 ENE 7 11 4 6 - - 0.0
17/07:10pm 16.9 16.4 13.8 82 1.8 ENE 9 13 5 7 - - 0.0
17/07:00pm 16.9 16.9 13.7 81 1.9 ENE 6 9 3 5 - - 0.0
17/06:50pm 17.0 17.0 13.7 81 1.9 ENE 6 7 3 4 - - 0.0
17/06:40pm 17.1 16.6 13.7 80 2.0 ENE 9 13 5 7 - - 0.0
17/06:30pm 17.2 17.0 13.7 80 2.0 ENE 7 11 4 6 - - 0.0
17/06:20pm 17.2 16.6 13.6 79 2.1 ENE 9 11 5 6 - - 0.0
17/06:10pm 17.3 16.4 13.6 79 2.1 E 11 17 6 9 - - 0.0
17/06:00pm 17.4 16.4 13.5 78 2.3 E 11 20 6 11 - - 0.0
17/05:50pm 17.6 16.2 13.4 76 2.4 E 13 19 7 10 - - 0.0
17/05:40pm 17.8 16.8 13.5 76 2.5 E 11 17 6 9 - - 0.0
17/05:30pm 17.8 16.4 13.5 76 2.5 E 13 17 7 9 - - 0.0
17/05:20pm 18.2 16.8 13.3 73 2.8 ENE 13 17 7 9 - - 0.0
17/05:10pm 17.9 16.8 13.0 73 2.8 ENE 11 15 6 8 - - 0.0
17/05:00pm 17.9 17.2 13.3 74 2.7 ENE 9 15 5 8 - - 0.0
17/04:50pm 18.0 16.5 13.2 73 2.8 ENE 13 17 7 9 - - 0.0
17/04:40pm 17.8 15.9 13.1 74 2.7 ENE 15 19 8 10 - - 0.0
17/04:30pm 17.9 16.1 13.4 75 2.6 E 15 22 8 12 - - 0.0
17/04:20pm 18.3 16.7 14.0 76 2.5 E 15 20 8 11 - - 0.0
17/04:10pm 18.4 17.2 14.1 76 2.5 ENE 13 17 7 9 - - 0.0
17/04:00pm 18.8 16.9 14.2 74 2.7 E 17 24 9 13 - - 0.0
17/03:50pm 19.6 17.9 13.7 68 3.5 E 15 20 8 11 - - 0.0
17/03:40pm 19.4 17.9 13.1 67 3.7 E 13 17 7 9 - - 0.0
17/03:30pm 19.4 18.0 13.5 68 3.4 ENE 13 17 7 9 - - 0.0
17/03:20pm 19.3 17.4 12.9 66 3.7 E 15 20 8 11 - - 0.0
17/03:10pm 19.8 18.7 13.2 65 3.8 E 11 15 6 8 - - 0.0
17/03:00pm 20.0 18.1 13.1 64 4.0 E 15 19 8 10 - - 0.0
17/02:50pm 19.9 18.0 13.0 64 4.0 ENE 15 19 8 10 - - 0.0
17/02:40pm 20.2 18.4 13.3 64 4.0 ENE 15 19 8 10 - - 0.0
17/02:30pm 20.4 18.8 12.9 62 4.4 E 13 20 7 11 - - 0.0
17/02:20pm 20.1 18.9 12.8 63 4.2 ENE 11 17 6 9 - - 0.0
17/02:10pm 19.7 18.0 12.6 63 4.1 ENE 13 17 7 9 - - 0.0
17/02:00pm 19.9 18.2 12.3 61 4.4 ENE 13 19 7 10 - - 0.0
17/01:50pm 20.0 18.4 12.8 63 4.2 ENE 13 15 7 8 - - 0.0
17/01:40pm 20.1 18.5 11.7 58 4.8 ENE 11 13 6 7 - - 0.0
17/01:30pm 20.1 19.0 12.1 60 4.6 E 9 15 5 8 - - 0.0
17/01:20pm 20.1 18.1 11.4 57 4.9 E 13 17 7 9 - - 0.0
17/01:10pm 20.6 18.7 11.7 56 5.1 E 13 17 7 9 - - 0.0
17/01:00pm 21.3 19.7 11.7 54 5.5 ENE 11 15 6 8 - - 0.0
17/12:50pm 21.2 18.3 10.9 51 5.8 E 17 20 9 11 - - 0.0
17/12:40pm 21.3 18.2 8.7 44 6.8 E 15 19 8 10 - - 0.0
17/12:30pm 21.2 19.4 10.8 51 5.8 NE 11 15 6 8 - - 0.0
17/12:20pm 20.9 18.9 10.1 50 6.0 ENE 11 15 6 8 - - 0.0
17/12:10pm 20.4 18.3 11.2 55 5.2 E 13 19 7 10 - - 0.0
17/12:00pm 20.2 18.8 11.0 55 5.2 E 9 11 5 6 - - 0.0
17/11:50am 19.5 17.7 12.2 62 4.2 ENE 13 17 7 9 - - 0.0
17/11:40am 19.8 18.6 12.8 64 4.0 E 11 17 6 9 - - 0.0
17/11:30am 19.8 18.2 12.7 63 4.1 E 13 19 7 10 - - 0.0
17/11:20am 20.2 19.2 13.4 65 4.0 E 11 15 6 8 - - 0.0
17/11:10am 20.1 19.0 13.2 64 4.0 E 11 13 6 7 - - 0.0
17/11:00am 19.7 18.7 13.3 66 3.7 E 11 13 6 7 - - 0.0
17/10:50am 19.5 18.2 13.6 68 3.5 E 13 19 7 10 - - 0.0
17/10:40am 19.8 18.9 13.7 68 3.6 ESE 11 17 6 9 - - 0.0
17/10:30am 19.6 18.4 13.9 69 3.4 ESE 13 15 7 8 - - 0.0
17/10:20am 19.6 18.4 14.0 70 3.3 ESE 13 17 7 9 - - 0.0
17/10:10am 19.4 19.0 14.0 71 3.2 E 9 11 5 6 - - 0.0
17/10:00am 18.8 18.2 14.5 76 2.6 ENE 11 13 6 7 - - 0.0
17/09:50am 18.5 18.5 14.3 76 2.5 ENE 7 9 4 5 - - 0.0
17/09:40am 18.4 18.7 15.0 80 2.0 E 7 9 4 5 - - 0.0
17/08:50am 18.2 18.4 14.7 80 2.1 E 7 7 4 4 - - 0.4
17/08:40am 18.1 17.9 14.7 80 2.0 ESE 9 13 5 7 - - 0.4
17/08:30am 18.5 18.7 14.6 78 2.3 ENE 7 13 4 7 - - 0.4
17/08:20am 18.4 18.6 14.6 78 2.3 E 7 11 4 6 - - 0.4
17/08:10am 17.9 18.2 14.9 82 1.8 E 7 9 4 5 - - 0.4
17/08:00am 17.6 17.7 14.4 81 1.9 E 7 9 4 5 - - 0.4
17/07:50am 17.5 17.8 14.6 83 1.7 E 6 9 3 5 - - 0.4
17/07:40am 17.4 17.7 14.4 82 1.8 E 6 9 3 5 - - 0.4
17/07:30am 17.3 17.6 14.4 83 1.7 E 6 7 3 4 - - 0.4
17/07:20am 17.2 17.2 14.1 82 1.8 E 7 9 4 5 - - 0.4
17/07:00am 17.2 17.3 13.9 81 1.9 E 6 7 3 4 - - 0.4
17/06:50am 17.1 17.2 13.8 81 1.9 ENE 6 9 3 5 - - 0.4
17/06:40am 17.5 17.7 14.2 81 1.9 ESE 6 9 3 5 - - 0.4
17/06:30am 17.2 17.3 13.9 81 1.9 E 6 7 3 4 - - 0.4
17/06:20am 16.7 17.2 14.0 84 1.6 E 4 6 2 3 - - 0.4
17/06:10am 16.7 17.1 13.8 83 1.7 ENE 4 6 2 3 - - 0.4
17/06:00am 16.4 17.1 13.5 83 1.7 E 2 6 1 3 - - 0.4
17/05:50am 16.2 16.5 13.4 83 1.6 E 4 6 2 3 - - 0.4
17/05:40am 15.9 15.8 13.3 84 1.5 ENE 6 6 3 3 - - 0.4
17/05:30am 15.4 15.2 13.1 86 1.3 ENE 6 9 3 5 - - 0.4
17/05:20am 15.2 16.2 13.3 88 1.1 CALM 0 0 0 0 - - 0.4
17/05:10am 15.8 16.0 13.2 84 1.5 NE 4 6 2 3 - - 0.4
17/05:00am 15.8 16.0 13.2 84 1.5 ENE 4 6 2 3 - - 0.4
17/04:50am 15.9 15.7 13.1 83 1.6 ENE 6 7 3 4 - - 0.4
17/04:40am 15.9 15.7 13.1 83 1.6 ENE 6 7 3 4 - - 0.4
17/04:30am 15.9 15.7 13.1 83 1.6 ENE 6 6 3 3 - - 0.4
17/04:20am 15.8 15.7 13.2 84 1.5 NE 6 6 3 3 - - 0.4
17/04:10am 15.8 16.0 13.2 84 1.5 NE 4 6 2 3 - - 0.4
17/04:00am 15.8 15.6 13.1 84 1.5 NE 6 6 3 3 - - 0.4
17/03:50am 15.7 15.9 13.2 85 1.4 NE 4 4 2 2 - - 0.4
17/03:40am 15.9 16.1 13.2 84 1.5 NE 4 6 2 3 - - 0.4
17/03:30am 16.0 16.2 13.2 83 1.6 NE 4 6 2 3 - - 0.4
17/03:20am 16.0 16.3 13.3 84 1.5 ENE 4 6 2 3 - - 0.4
17/03:10am 16.1 16.4 13.3 83 1.6 NE 4 6 2 3 - - 0.4
17/03:00am 16.2 16.5 13.5 84 1.6 NE 4 6 2 3 - - 0.4
17/02:50am 16.2 17.0 13.6 84 1.5 NNE 2 2 1 1 - - 0.4
17/02:40am 16.2 17.0 13.7 85 1.4 NNE 2 4 1 2 - - 0.4
17/02:30am 16.3 17.1 13.7 84 1.5 NE 2 4 1 2 - - 0.4
17/02:20am 16.3 16.7 13.7 84 1.5 NE 4 6 2 3 - - 0.4
17/02:10am 16.3 16.8 13.9 86 1.4 NE 4 4 2 2 - - 0.4
17/02:00am 16.3 17.2 13.9 86 1.4 NE 2 4 1 2 - - 0.4
17/01:50am 16.4 16.8 13.8 84 1.5 NE 4 6 2 3 - - 0.4
17/01:40am 16.4 17.2 13.8 84 1.5 NE 2 4 1 2 - - 0.4
17/01:30am 16.3 16.7 13.8 85 1.4 NE 4 6 2 3 - - 0.4
17/01:20am 16.3 16.7 13.8 85 1.4 NE 4 4 2 2 - - 0.4
17/01:10am 16.3 16.7 13.8 85 1.4 NE 4 6 2 3 - - 0.4
17/01:00am 16.3 16.3 13.7 84 1.5 ENE 6 7 3 4 - - 0.4
17/12:50am 16.3 16.3 13.7 84 1.5 ENE 6 9 3 5 - - 0.4
17/12:40am 16.3 16.3 13.6 84 1.6 NE 6 7 3 4 - - 0.4
17/12:30am 16.2 16.2 13.5 84 1.6 NE 6 7 3 4 - - 0.4
17/12:20am 16.2 16.2 13.5 84 1.6 ENE 6 6 3 3 - - 0.4
17/12:10am 16.2 16.5 13.4 83 1.6 ENE 4 6 2 3 - - 0.4
17/12:00am 16.1 16.4 13.5 84 1.5 NE 4 4 2 2 - - 0.4
 
Date/Time
EST
Temp
°C
App
Temp
°C
Dew
Point
°C
Rel
Hum
%
Delta-T
°C
Wind Press
QNH
hPa
Press
MSL
hPa
Rain since
9am
mm
Dir  Spd
km/h
Gust
km/h
Spd
kts
Gust
kts
16/11:50pm 16.1 16.5 13.6 85 1.4 ENE 4 6 2 3 - - 0.4
16/11:40pm 16.1 16.1 13.7 86 1.4 ENE 6 9 3 5 - - 0.4
16/11:30pm 16.0 16.1 13.8 87 1.3 ENE 6 7 3 4 - - 0.4
16/11:20pm 16.0 15.9 13.9 87 1.2 ENE 7 9 4 5 - - 0.4
16/11:00pm 16.1 16.2 13.9 87 1.3 E 6 7 3 4 - - 0.4
16/10:50pm 16.1 16.0 13.9 87 1.3 ENE 7 9 4 5 - - 0.4
16/10:40pm 16.2 16.1 13.9 86 1.3 E 7 11 4 6 - - 0.4
16/10:30pm 16.3 16.2 13.9 86 1.4 ENE 7 9 4 5 - - 0.4
16/10:20pm 16.3 16.2 13.9 86 1.4 ENE 7 7 4 4 - - 0.4
16/10:10pm 16.4 16.5 13.9 85 1.5 E 6 7 3 4 - - 0.4
16/10:00pm 16.5 16.6 13.9 84 1.5 E 6 9 3 5 - - 0.4
16/09:50pm 16.5 16.4 14.0 85 1.5 ENE 7 9 4 5 - - 0.4
16/09:40pm 16.6 16.7 14.0 84 1.5 ENE 6 9 3 5 - - 0.4
16/09:30pm 16.6 16.7 14.0 84 1.5 ENE 6 9 3 5 - - 0.4
16/09:20pm 16.6 16.5 14.0 84 1.5 ENE 7 9 4 5 - - 0.4
16/09:10pm 16.4 16.5 14.0 86 1.4 ENE 6 9 3 5 - - 0.4
16/09:00pm 16.3 16.2 14.0 86 1.3 ENE 7 9 4 5 - - 0.4
16/08:50pm 16.4 16.4 14.1 86 1.3 ENE 7 9 4 5 - - 0.4
16/08:40pm 16.4 16.4 14.1 86 1.3 E 7 9 4 5 - - 0.4
16/08:30pm 16.5 16.1 14.2 86 1.3 ENE 9 11 5 6 - - 0.4
16/08:20pm 16.5 16.5 14.1 86 1.4 ENE 7 9 4 5 - - 0.4
16/08:10pm 16.5 16.1 14.2 86 1.3 ENE 9 9 5 5 - - 0.4
16/08:00pm 16.5 16.5 14.2 86 1.3 ENE 7 9 4 5 - - 0.4
16/07:50pm 16.5 16.1 14.2 86 1.3 E 9 9 5 5 - - 0.4
16/07:40pm 16.6 16.6 14.3 86 1.3 E 7 11 4 6 - - 0.4
16/07:30pm 16.8 16.5 14.3 85 1.5 E 9 11 5 6 - - 0.4
16/07:20pm 16.8 16.4 14.2 85 1.5 E 9 11 5 6 - - 0.4
16/07:10pm 16.7 16.4 14.3 86 1.4 ENE 9 11 5 6 - - 0.4
16/07:00pm 16.8 16.5 14.3 85 1.5 E 9 13 5 7 - - 0.4
16/06:50pm 16.9 16.6 14.4 85 1.5 E 9 13 5 7 - - 0.4
16/06:40pm 17.0 16.3 14.3 84 1.6 E 11 15 6 8 - - 0.4
16/06:30pm 17.0 16.3 14.4 85 1.5 E 11 13 6 7 - - 0.4
16/06:20pm 17.1 16.8 14.4 84 1.6 E 9 11 5 6 - - 0.4
16/06:10pm 17.3 17.0 14.4 83 1.7 E 9 9 5 5 - - 0.4
16/06:00pm 17.3 16.2 14.2 82 1.8 E 13 17 7 9 - - 0.4
16/05:50pm 17.5 17.2 14.3 81 1.9 E 9 13 5 7 - - 0.4
16/05:40pm 17.6 16.9 14.2 80 2.0 E 11 13 6 7 - - 0.4
16/05:30pm 17.7 17.0 14.3 80 2.0 E 11 13 6 7 - - 0.4
16/05:20pm 18.0 16.9 14.4 79 2.1 E 13 15 7 8 - - 0.4
16/05:10pm 18.5 18.2 14.5 77 2.4 E 9 13 5 7 - - 0.4
16/05:00pm 19.0 18.5 14.8 76 2.5 E 11 15 6 8 - - 0.4
16/04:50pm 19.2 18.2 14.6 74 2.7 E 13 15 7 8 - - 0.4
16/04:40pm 18.7 17.3 14.5 76 2.5 E 15 17 8 9 - - 0.4
16/04:30pm 18.1 16.6 14.3 78 2.2 E 15 19 8 10 - - 0.4
16/04:20pm 18.0 16.2 14.4 79 2.1 E 17 20 9 11 - - 0.4
16/04:10pm 18.4 16.7 14.6 78 2.3 E 17 22 9 12 - - 0.4
16/04:00pm 18.2 17.2 14.7 80 2.1 E 13 15 7 8 - - 0.4
16/03:50pm 18.4 16.7 14.7 79 2.2 E 17 20 9 11 - - 0.4
16/03:40pm 19.1 17.5 15.0 77 2.5 E 17 20 9 11 - - 0.4
16/03:30pm 19.1 18.0 15.4 79 2.2 E 15 19 8 10 - - 0.4
16/03:20pm 19.5 18.3 15.1 76 2.6 E 15 19 8 10 - - 0.4
16/03:10pm 19.0 17.9 15.2 78 2.3 E 15 19 8 10 - - 0.4
16/03:00pm 18.7 17.7 15.6 82 1.9 E 15 19 8 10 - - 0.4
16/02:50pm 18.6 17.9 15.5 82 1.9 E 13 17 7 9 - - 0.4
16/02:40pm 18.7 17.3 15.5 81 1.9 E 17 20 9 11 - - 0.4
16/02:30pm 19.2 17.9 15.7 80 2.1 E 17 22 9 12 - - 0.4
16/02:20pm 19.3 17.9 15.6 79 2.2 E 17 19 9 10 - - 0.4
16/02:10pm 19.4 18.4 15.6 78 2.3 E 15 22 8 12 - - 0.4
16/02:00pm 19.0 17.5 15.3 79 2.2 E 17 19 9 10 - - 0.4
16/01:50pm 18.6 17.2 15.6 83 1.8 E 17 20 9 11 - - 0.4
16/01:40pm 18.6 17.8 16.0 85 1.6 E 15 20 8 11 - - 0.4
16/01:30pm 18.4 17.2 16.0 86 1.5 E 17 20 9 11 - - 0.4
16/01:20pm 19.8 19.3 15.8 78 2.4 ESE 13 17 7 9 - - 0.4
16/01:10pm 20.6 19.7 14.9 70 3.4 E 13 17 7 9 - - 0.4
16/01:00pm 21.1 20.6 14.8 67 3.8 E 11 17 6 9 - - 0.4
16/12:50pm 20.7 20.1 14.7 68 3.6 E 11 17 6 9 - - 0.4
16/12:40pm 21.0 20.7 14.4 66 3.9 ENE 9 17 5 9 - - 0.4
16/12:30pm 21.5 21.8 14.9 66 4.0 E 7 11 4 6 - - 0.4
16/12:20pm 21.5 21.9 14.8 65 4.0 E 6 9 3 5 - - 0.4
16/12:10pm 20.8 20.9 13.9 64 4.1 ENE 6 7 3 4 - - 0.4
16/12:00pm 20.7 20.9 14.1 66 3.9 ENE 6 7 3 4 - - 0.4
16/11:50am 20.8 21.3 14.0 65 4.0 ESE 4 6 2 3 - - 0.4
16/11:40am 20.7 21.1 13.8 64 4.1 E 4 6 2 3 - - 0.4
16/11:30am 20.8 20.8 13.5 63 4.3 NE 6 7 3 4 - - 0.2
16/11:20am 20.8 21.0 14.2 66 3.9 E 6 7 3 4 - - 0.0
16/11:10am 20.8 20.9 14.0 65 4.0 ENE 6 7 3 4 - - 0.0
16/11:00am 21.1 21.2 13.9 63 4.3 ENE 6 7 3 4 - - 0.0
16/10:50am 20.9 21.3 13.8 64 4.2 NNE 4 7 2 4 - - 0.0
16/10:40am 20.1 20.0 13.4 65 3.9 W 6 9 3 5 - - 0.0
16/10:30am 20.6 20.7 14.4 67 3.7 WNW 7 9 4 5 - - 0.0
16/10:00am 19.2 19.4 14.2 73 3.0 WSW 6 7 3 4 - - 0.0
16/09:50am 19.4 19.3 14.0 71 3.2 W 7 9 4 5 - - 0.0
16/09:40am 19.7 19.2 13.9 69 3.4 W 9 11 5 6 - - 0.0
16/09:30am 21.0 21.5 14.0 64 4.2 NW 4 9 2 5 - - 0.0
16/09:20am 20.2 20.5 13.3 64 4.0 NNE 4 6 2 3 - - 0.0
16/09:10am 19.0 19.8 13.8 72 3.0 WNW 2 4 1 2 - - 0.0
16/09:00am 18.4 18.7 14.6 78 2.3 WSW 6 9 3 5 - - 0.0
16/08:50am 18.5 18.2 14.5 77 2.4 WSW 9 11 5 6 - - 0.0
16/08:40am 18.8 19.0 14.8 77 2.4 W 7 11 4 6 - - 0.0
16/08:30am 18.7 18.8 14.5 76 2.5 W 7 13 4 7 - - 0.0
16/08:20am 18.5 18.3 14.6 78 2.3 NW 9 13 5 7 - - 0.0
16/08:10am 17.9 16.9 13.5 75 2.6 NW 11 17 6 9 - - 0.0
16/08:00am 17.6 17.1 13.7 78 2.3 NW 9 11 5 6 - - 0.0
16/07:50am 17.5 16.3 12.9 74 2.6 NW 11 13 6 7 - - 0.0
16/07:40am 17.7 17.7 13.6 77 2.4 N 6 11 3 6 - - 0.0
16/07:30am 17.9 18.1 14.2 79 2.2 N 6 7 3 4 - - 0.0
16/07:20am 18.0 18.9 13.9 77 2.4 N 2 6 1 3 - - 0.0
16/07:10am 18.1 19.0 14.0 77 2.4 NNE 2 4 1 2 - - 0.0
16/07:00am 18.0 18.9 13.9 77 2.4 NNE 2 4 1 2 - - 0.0
16/06:50am 17.9 18.1 13.2 74 2.7 N 4 7 2 4 - - 0.0
16/06:40am 17.7 18.6 14.0 79 2.2 N 2 7 1 4 - - 0.0
16/06:30am 17.7 18.0 13.4 76 2.5 N 4 6 2 3 - - 0.0
16/06:20am 17.9 18.5 14.2 79 2.2 NNW 4 4 2 2 - - 0.0
16/06:10am 17.6 18.5 13.9 79 2.2 N 2 6 1 3 - - 0.0
16/06:00am 17.3 17.7 13.8 80 2.0 NNW 4 6 2 3 - - 0.0
16/05:50am 17.1 17.9 13.7 80 2.0 N 2 4 1 2 - - 0.0
16/05:40am 16.5 17.2 13.4 82 1.8 N 2 4 1 2 - - 0.0
16/05:30am 15.9 16.6 13.3 84 1.5 N 2 4 1 2 - - 0.0
16/05:20am 15.5 16.1 13.1 85 1.4 NNW 2 4 1 2 - - 0.0
16/04:50am 14.7 15.6 13.0 89 1.0 CALM 0 0 0 0 - - 0.0
16/04:40am 14.9 15.8 13.0 88 1.1 CALM 0 0 0 0 - - 0.0
16/04:30am 15.0 16.0 13.1 88 1.1 CALM 0 0 0 0 - - 0.0
16/04:20am 15.0 15.6 13.0 88 1.1 ENE 2 4 1 2 - - 0.0
16/04:10am 14.6 15.6 13.2 91 0.8 CALM 0 2 0 1 - - 0.0
16/04:00am 14.7 15.7 13.2 91 0.9 CALM 0 2 0 1 - - 0.0
16/03:50am 14.9 15.9 13.3 90 0.9 CALM 0 2 0 1 - - 0.0
16/03:40am 15.0 16.0 13.3 89 1.0 CALM 0 0 0 0 - - 0.0
16/03:30am 15.0 16.0 13.3 89 1.0 CALM 0 0 0 0 - - 0.0
16/03:20am 14.8 15.9 13.4 91 0.8 CALM 0 0 0 0 - - 0.0
16/03:10am 14.7 15.8 13.4 92 0.7 CALM 0 2 0 1 - - 0.0
16/03:00am 14.9 16.0 13.4 91 0.9 CALM 0 0 0 0 - - 0.0
16/02:50am 15.2 15.9 13.4 89 1.0 N 2 4 1 2 - - 0.0
16/02:40am 15.4 15.7 13.4 88 1.1 NE 4 4 2 2 - - 0.0
16/02:30am 15.3 15.6 13.5 89 1.0 NE 4 4 2 2 - - 0.0
16/02:20am 15.2 15.5 13.5 89 1.0 NE 4 4 2 2 - - 0.0
16/02:10am 15.3 15.7 13.6 90 1.0 NNE 4 4 2 2 - - 0.0
16/02:00am 15.4 15.8 13.6 89 1.0 NE 4 6 2 3 - - 0.0
16/01:50am 15.4 15.4 13.6 89 1.0 NE 6 6 3 3 - - 0.0
16/01:40am 15.3 15.7 13.6 90 1.0 NE 4 6 2 3 - - 0.0
16/01:30am 15.3 16.1 13.6 90 1.0 NNE 2 4 1 2 - - 0.0
16/01:20am 15.4 16.2 13.6 89 1.0 NNE 2 4 1 2 - - 0.0
16/01:10am 15.5 16.3 13.7 89 1.0 NNE 2 4 1 2 - - 0.0
16/01:00am 15.4 16.6 13.7 90 1.0 CALM 0 2 0 1 - - 0.0
16/12:50am 15.3 16.5 13.7 90 0.9 CALM 0 2 0 1 - - 0.0
16/12:40am 15.3 16.5 13.7 90 0.9 CALM 0 2 0 1 - - 0.0
16/12:30am 15.4 16.6 13.7 90 1.0 CALM 0 0 0 0 - - 0.0
16/12:20am 15.5 15.9 13.7 89 1.0 NNE 4 6 2 3 - - 0.0
16/12:10am 15.5 16.3 13.7 89 1.0 NNE 2 4 1 2 - - 0.0
16/12:00am 15.6 16.0 13.7 88 1.1 NE 4 4 2 2 - - 0.0
 
Date/Time
EST
Temp
°C
App
Temp
°C
Dew
Point
°C
Rel
Hum
%
Delta-T
°C
Wind Press
QNH
hPa
Press
MSL
hPa
Rain since
9am
mm
Dir  Spd
km/h
Gust
km/h
Spd
kts
Gust
kts
15/11:50pm 15.6 16.4 13.7 88 1.1 NE 2 4 1 2 - - 0.0
15/11:40pm 15.7 15.7 13.7 88 1.2 NE 6 7 3 4 - - 0.0
15/11:30pm 15.7 15.7 13.7 88 1.2 NE 6 7 3 4 - - 0.0
15/11:20pm 15.7 16.5 13.8 88 1.1 NNE 2 4 1 2 - - 0.0
15/11:10pm 15.9 16.3 13.8 87 1.2 NNE 4 6 2 3 - - 0.0
15/11:00pm 15.9 15.9 13.7 87 1.3 NE 6 7 3 4 - - 0.0
15/10:50pm 15.8 15.8 13.6 87 1.3 NE 6 6 3 3 - - 0.0
15/10:40pm 15.7 15.7 13.6 87 1.2 NE 6 6 3 3 - - 0.0
15/10:30pm 15.7 15.7 13.7 88 1.2 NE 6 7 3 4 - - 0.0
15/10:20pm 15.7 16.1 13.7 88 1.2 NE 4 6 2 3 - - 0.0
15/10:10pm 15.7 15.8 13.8 88 1.1 NE 6 6 3 3 - - 0.0
15/10:00pm 15.8 16.2 13.8 88 1.2 NE 4 6 2 3 - - 0.0
15/09:50pm 15.9 16.3 13.8 87 1.2 NE 4 6 2 3 - - 0.0
15/09:40pm 16.0 16.4 13.8 87 1.3 NE 4 6 2 3 - - 0.0
15/09:30pm 16.1 16.5 13.7 86 1.4 NE 4 6 2 3 - - 0.0
15/09:20pm 16.2 16.3 13.8 86 1.4 NE 6 7 3 4 - - 0.0
15/09:10pm 16.3 16.4 13.8 85 1.4 NE 6 7 3 4 - - 0.0
15/09:00pm 16.3 16.4 13.8 85 1.4 ENE 6 9 3 5 - - 0.0
15/08:50pm 16.4 16.3 13.9 85 1.5 ENE 7 9 4 5 - - 0.0
15/08:40pm 16.3 16.2 14.0 86 1.3 ENE 7 9 4 5 - - 0.0
15/08:30pm 16.3 15.8 13.9 86 1.4 ENE 9 11 5 6 - - 0.0
15/08:20pm 16.2 16.1 13.9 86 1.3 ENE 7 9 4 5 - - 0.0
15/08:10pm 16.2 16.1 13.9 86 1.3 ENE 7 9 4 5 - - 0.0
15/08:00pm 16.2 16.1 13.8 86 1.4 ENE 7 7 4 4 - - 0.0
15/07:50pm 16.2 16.1 13.8 86 1.4 ENE 7 9 4 5 - - 0.0
15/07:40pm 16.3 16.2 13.8 85 1.4 ENE 7 9 4 5 - - 0.0
15/07:30pm 16.3 16.2 13.8 85 1.4 ENE 7 7 4 4 - - 0.0
15/07:20pm 16.3 16.2 13.8 85 1.4 ENE 7 9 4 5 - - 0.0
15/07:10pm 16.4 16.3 13.8 84 1.5 ENE 7 9 4 5 - - 0.0
15/07:00pm 16.4 16.3 13.8 84 1.5 ENE 7 9 4 5 - - 0.0
15/06:50pm 16.4 16.4 14.2 87 1.3 ENE 7 9 4 5 - - 0.0
15/06:40pm 16.5 16.8 14.5 88 1.2 ENE 6 7 3 4 - - 0.0
15/06:30pm 16.6 16.3 14.5 87 1.2 E 9 13 5 7 - - 0.0
15/06:20pm 16.8 16.5 14.5 86 1.4 E 9 11 5 6 - - 0.0
15/06:10pm 16.9 16.3 14.6 86 1.4 E 11 13 6 7 - - 0.0
15/06:00pm 17.2 16.6 14.7 85 1.5 E 11 13 6 7 - - 0.0
15/05:50pm 17.6 17.0 14.7 83 1.7 E 11 13 6 7 - - 0.0
15/05:40pm 18.1 17.6 14.9 81 1.9 E 11 19 6 10 - - 0.0
15/05:30pm 18.1 17.2 14.9 81 1.9 E 13 15 7 8 - - 0.0
15/05:20pm 18.1 17.5 14.7 80 2.0 ENE 11 13 6 7 - - 0.0
15/05:00pm 18.2 17.3 14.8 80 2.0 E 13 17 7 9 - - 0.0
15/04:50pm 18.3 17.0 14.7 79 2.1 E 15 19 8 10 - - 0.0
15/04:40pm 18.5 17.5 14.6 78 2.3 E 13 15 7 8 - - 0.0
15/04:30pm 18.7 17.7 14.6 77 2.4 E 13 17 7 9 - - 0.0
15/04:20pm 18.3 17.7 14.7 79 2.1 E 11 15 6 8 - - 0.0
15/04:10pm 17.6 16.8 15.1 85 1.5 ENE 13 17 7 9 - - 0.0
15/04:00pm 17.9 16.8 15.3 85 1.6 E 15 19 8 10 - - 0.0
15/03:50pm 18.5 17.2 14.7 78 2.3 ENE 15 19 8 10 - - 0.0
15/03:40pm 18.7 17.0 14.7 77 2.4 E 17 20 9 11 - - 0.0
15/03:30pm 18.8 17.5 14.9 78 2.3 E 15 19 8 10 - - 0.0
15/03:20pm 18.4 16.5 15.2 81 1.9 E 19 22 10 12 - - 0.0
15/03:10pm 18.8 17.0 14.4 75 2.6 ENE 17 22 9 12 - - 0.0
15/03:00pm 19.1 17.4 14.7 75 2.6 E 17 20 9 11 - - 0.0
15/02:50pm 19.5 17.1 14.5 73 3.0 E 20 26 11 14 - - 0.0
15/02:40pm 20.2 18.0 14.9 71 3.2 E 20 24 11 13 - - 0.0
15/02:30pm 20.6 19.2 14.6 68 3.6 E 15 19 8 10 - - 0.0
15/02:20pm 19.5 17.5 13.9 70 3.3 E 17 20 9 11 - - 0.0
15/02:10pm 20.0 18.9 14.3 69 3.4 ESE 13 19 7 10 - - 0.0
15/02:00pm 20.7 20.3 14.1 66 3.9 ENE 9 17 5 9 - - 0.0
15/01:50pm 19.9 17.8 13.6 67 3.7 ENE 17 24 9 13 - - 0.0
15/01:40pm 19.8 18.1 13.5 67 3.7 ENE 15 17 8 9 - - 0.0
15/01:30pm 19.7 18.0 13.6 68 3.6 E 15 17 8 9 - - 0.0
15/01:20pm 18.6 16.8 13.4 72 3.0 E 15 19 8 10 - - 0.0
15/01:10pm 18.3 16.6 13.7 74 2.7 E 15 22 8 12 - - 0.0
15/01:00pm 18.4 16.7 13.6 73 2.8 E 15 19 8 10 - - 0.0
15/12:50pm 18.9 17.3 13.9 73 2.9 E 15 20 8 11 - - 0.0
15/12:40pm 19.7 18.2 13.2 66 3.8 E 13 17 7 9 - - 0.0
15/12:30pm 19.8 18.2 12.9 64 4.0 ESE 13 19 7 10 - - 0.0
15/12:20pm 20.5 18.6 13.0 62 4.4 ESE 15 19 8 10 - - 0.0
15/12:10pm 21.0 19.2 13.2 61 4.6 ESE 15 19 8 10 - - 0.0
15/12:00pm 20.3 18.2 12.5 61 4.5 ESE 15 19 8 10 - - 0.0
15/11:50am 19.9 18.4 13.0 64 4.0 E 13 17 7 9 - - 0.0
15/11:40am 20.4 18.1 13.0 62 4.3 E 17 20 9 11 - - 0.0
15/11:30am 21.2 19.5 13.6 62 4.5 E 15 17 8 9 - - 0.0
15/11:20am 21.3 19.5 13.2 60 4.8 E 15 19 8 10 - - 0.0
15/11:10am 20.8 19.2 13.9 64 4.1 E 15 19 8 10 - - 0.0
15/11:00am 21.1 19.6 13.1 60 4.7 E 13 19 7 10 - - 0.0
15/10:50am 21.0 19.7 13.6 62 4.4 E 13 19 7 10 - - 0.0
15/10:40am 20.8 19.2 12.8 60 4.6 E 13 20 7 11 - - 0.0
15/10:30am 20.7 19.2 13.1 61 4.4 E 13 17 7 9 - - 0.0
15/10:20am 20.6 19.5 14.3 67 3.8 E 13 17 7 9 - - 0.0
15/10:10am 20.7 20.0 13.1 61 4.4 E 9 13 5 7 - - 0.0
15/10:00am 20.4 19.3 13.2 63 4.2 ENE 11 13 6 7 - - 0.0
15/09:50am 20.2 19.1 13.0 63 4.2 E 11 15 6 8 - - 0.0
15/09:40am 20.4 19.7 14.2 67 3.7 E 11 19 6 10 - - 0.0
15/09:30am 20.3 19.6 13.1 63 4.2 E 9 13 5 7 - - 0.0
15/09:20am 19.4 18.8 12.4 64 4.0 E 7 11 4 6 - - 0.0
15/09:10am 18.9 17.7 12.8 67 3.5 E 11 17 6 9 - - 0.0
15/09:00am 19.1 18.5 13.4 69 3.3 ESE 9 11 5 6 - - 0.0
15/08:50am 19.5 18.0 13.0 66 3.8 E 13 17 7 9 - - 0.0
15/08:40am 19.9 18.6 12.6 63 4.2 ESE 11 15 6 8 - - 0.0
15/08:30am 19.4 18.7 13.1 67 3.7 SE 9 17 5 9 - - 0.0
15/08:20am 18.6 18.0 13.4 72 3.0 E 9 13 5 7 - - 0.0
15/08:10am 19.4 18.8 13.6 69 3.4 SE 9 13 5 7 - - 0.0
15/08:00am 18.5 17.8 13.1 71 3.1 ESE 9 13 5 7 - - 0.0
15/07:50am 18.3 17.4 13.6 74 2.7 E 11 17 6 9 - - 0.0
15/07:40am 18.2 17.7 13.8 75 2.6 SE 9 15 5 8 - - 0.0
15/07:30am 18.2 17.6 13.5 74 2.7 ESE 9 13 5 7 - - 0.0
15/07:20am 17.7 16.3 13.5 76 2.4 ESE 13 17 7 9 - - 0.0
15/07:10am 17.8 16.9 13.8 77 2.3 ESE 11 15 6 8 - - 0.0

Other Formats:

Comma delimited format used in spreadsheet applications
http://www.bom.gov.au/fwo/IDQ60801/IDQ60801.99123.axf

JavaScript Object Notation format (JSON) in row-major order
http://www.bom.gov.au/fwo/IDQ60801/IDQ60801.99123.json